Time;durP1;ratioP1;P1;durP2;ratioP2;P2;SDS_P1;SDS_P2;PMS_P1;PMS_P2;Temp;Humidity;BMP_temperature;BMP_pressure;BME280_temperature;BME280_humidity;BME280_pressure;Samples;Min_cycle;Max_cycle;Signal;HPM_P1;HPM_P2
2023/12/25 00:02:08;;;;;;;0.10;0.10;;;;;;;;;;6139559;23;20018;-79
2023/12/25 00:04:34;;;;;;;0.10;0.10;;;;;;;;;;6139519;23;20014;-80
2023/12/25 00:07:01;;;;;;;0.20;0.20;;;;;;;;;;6139031;23;20036;-81
2023/12/25 00:09:27;;;;;;;0.10;0.10;;;;;;;;;;6164287;23;20018;-81
2023/12/25 00:11:54;;;;;;;0.10;0.10;;;;;;;;;;6140172;23;20050;-79
2023/12/25 00:14:21;;;;;;;0.10;0.10;;;;;;;;;;6139700;23;20068;-80
2023/12/25 00:16:47;;;;;;;0.10;0.10;;;;;;;;;;6139076;23;20100;-79
2023/12/25 00:19:14;;;;;;;0.10;0.10;;;;;;;;;;6167213;23;20038;-80
2023/12/25 00:21:40;;;;;;;0.10;0.10;;;;;;;;;;6167917;23;20669;-80
2023/12/25 00:24:07;;;;;;;0.10;0.10;;;;;;;;;;6143886;23;20022;-81
2023/12/25 00:26:33;;;;;;;0.20;0.20;;;;;;;;;;6169605;23;20025;-81
2023/12/25 00:29:00;;;;;;;0.20;0.20;;;;;;;;;;6167492;23;20101;-81
2023/12/25 00:31:27;;;;;;;0.10;0.10;;;;;;;;;;6168796;23;20021;-81
2023/12/25 00:33:53;;;;;;;0.10;0.10;;;;;;;;;;6140222;23;20030;-80
2023/12/25 00:36:20;;;;;;;0.10;0.10;;;;;;;;;;6141630;23;20089;-82
2023/12/25 00:38:46;;;;;;;0.10;0.10;;;;;;;;;;6141912;23;20022;-82
2023/12/25 00:41:13;;;;;;;0.10;0.10;;;;;;;;;;6140536;23;20466;-82
2023/12/25 00:43:40;;;;;;;0.10;0.10;;;;;;;;;;6168792;23;20017;-82
2023/12/25 00:46:09;;;;;;;0.10;0.10;;;;;;;;;;6146816;23;20034;-81
2023/12/25 00:48:38;;;;;;;0.10;0.10;;;;;;;;;;6147519;23;20025;-81
2023/12/25 00:51:05;;;;;;;0.10;0.10;;;;;;;;;;6149285;23;20018;-81
2023/12/25 00:53:31;;;;;;;0.10;0.10;;;;;;;;;;6173104;23;20033;-81
2023/12/25 00:55:59;;;;;;;0.10;0.10;;;;;;;;;;6173442;23;20037;-80
2023/12/25 00:58:26;;;;;;;0.32;0.32;;;;;;;;;;6146105;23;20029;-81
2023/12/25 01:00:52;;;;;;;0.10;0.10;;;;;;;;;;6145313;23;20036;-80
2023/12/25 01:03:19;;;;;;;0.10;0.10;;;;;;;;;;6168559;23;20002;-78
2023/12/25 01:05:45;;;;;;;0.10;0.10;;;;;;;;;;6184266;23;20473;-79
2023/12/25 01:08:12;;;;;;;0.30;0.30;;;;;;;;;;6154499;23;20037;-79
2023/12/25 01:10:38;;;;;;;0.10;0.10;;;;;;;;;;6155234;23;20042;-79
2023/12/25 01:13:04;;;;;;;0.10;0.10;;;;;;;;;;6153151;23;20517;-79
2023/12/25 01:15:31;;;;;;;0.10;0.10;;;;;;;;;;6154542;23;20030;-79
2023/12/25 01:17:57;;;;;;;0.10;0.10;;;;;;;;;;6154670;23;20391;-79
2023/12/25 01:20:24;;;;;;;0.20;0.20;;;;;;;;;;6155630;23;20029;-79
2023/12/25 01:22:51;;;;;;;0.10;0.10;;;;;;;;;;6157290;23;20056;-79
2023/12/25 01:25:17;;;;;;;0.10;0.10;;;;;;;;;;6155636;23;20029;-78
2023/12/25 01:27:44;;;;;;;0.10;0.10;;;;;;;;;;6156720;23;20026;-79
2023/12/25 01:30:10;;;;;;;0.10;0.10;;;;;;;;;;6156072;23;20030;-79
2023/12/25 01:32:37;;;;;;;0.10;0.10;;;;;;;;;;6156272;23;20010;-79
2023/12/25 01:35:04;;;;;;;0.10;0.10;;;;;;;;;;6130287;23;20026;-79
2023/12/25 01:37:31;;;;;;;0.20;0.20;;;;;;;;;;6155617;23;20430;-79
2023/12/25 01:39:57;;;;;;;0.10;0.10;;;;;;;;;;6155935;23;20062;-79
2023/12/25 01:42:23;;;;;;;0.10;0.10;;;;;;;;;;6156241;23;20021;-79
2023/12/25 01:44:50;;;;;;;0.10;0.10;;;;;;;;;;6156333;23;20431;-79
2023/12/25 01:47:18;;;;;;;0.10;0.10;;;;;;;;;;6155693;23;20030;-79
2023/12/25 01:49:44;;;;;;;0.10;0.10;;;;;;;;;;6155755;23;20025;-79
2023/12/25 01:52:12;;;;;;;0.10;0.10;;;;;;;;;;6155587;23;20378;-79
2023/12/25 01:54:39;;;;;;;0.10;0.10;;;;;;;;;;6155754;23;20033;-79
2023/12/25 01:57:06;;;;;;;0.10;0.10;;;;;;;;;;6155581;23;20029;-79
2023/12/25 01:59:32;;;;;;;0.10;0.10;;;;;;;;;;6155736;23;20104;-79
2023/12/25 02:01:59;;;;;;;0.10;0.10;;;;;;;;;;6156473;23;20057;-79
2023/12/25 02:04:26;;;;;;;0.10;0.10;;;;;;;;;;6156465;23;20109;-79
2023/12/25 02:06:53;;;;;;;0.10;0.10;;;;;;;;;;6158402;23;20067;-79
2023/12/25 02:09:19;;;;;;;0.10;0.10;;;;;;;;;;6157983;23;20061;-79
2023/12/25 02:11:46;;;;;;;0.10;0.10;;;;;;;;;;6157456;23;20501;-80
2023/12/25 02:14:13;;;;;;;0.10;0.10;;;;;;;;;;6158094;23;20061;-79
2023/12/25 02:16:40;;;;;;;0.10;0.10;;;;;;;;;;6156998;23;20018;-79
2023/12/25 02:19:11;;;;;;;0.10;0.10;;;;;;;;;;6156070;23;20478;-79
2023/12/25 02:21:38;;;;;;;0.10;0.10;;;;;;;;;;6156126;23;20036;-79
2023/12/25 02:24:07;;;;;;;0.10;0.10;;;;;;;;;;6155474;23;20053;-78
2023/12/25 02:26:33;;;;;;;0.50;0.50;;;;;;;;;;6154171;23;20034;-79
2023/12/25 02:29:00;;;;;;;0.10;0.10;;;;;;;;;;6127700;23;20449;-78
2023/12/25 02:31:26;;;;;;;0.20;0.20;;;;;;;;;;6155478;23;20121;-78
2023/12/25 02:33:53;;;;;;;0.10;0.10;;;;;;;;;;6155586;23;20081;-79
2023/12/25 02:36:19;;;;;;;0.30;0.30;;;;;;;;;;6129407;23;20036;-79
2023/12/25 02:38:46;;;;;;;0.10;0.10;;;;;;;;;;6155564;23;20412;-79
2023/12/25 02:41:12;;;;;;;0.10;0.10;;;;;;;;;;6155863;23;20022;-79
2023/12/25 02:43:39;;;;;;;0.10;0.10;;;;;;;;;;6156816;23;20033;-79
2023/12/25 02:46:05;;;;;;;3.40;1.55;;;;;;;;;;6156982;23;20117;-79
2023/12/25 02:48:32;;;;;;;0.10;0.10;;;;;;;;;;6157767;23;20077;-79
2023/12/25 02:50:58;;;;;;;0.10;0.10;;;;;;;;;;6156587;23;20990;-79
2023/12/25 02:53:25;;;;;;;0.25;0.25;;;;;;;;;;6155929;23;20033;-79
2023/12/25 02:55:51;;;;;;;0.10;0.10;;;;;;;;;;6156927;23;20085;-79
2023/12/25 02:58:18;;;;;;;0.10;0.10;;;;;;;;;;6156978;23;20041;-79
2023/12/25 03:00:44;;;;;;;0.10;0.10;;;;;;;;;;6156694;23;20124;-79
2023/12/25 03:03:11;;;;;;;0.10;0.10;;;;;;;;;;6156289;23;20033;-79
2023/12/25 03:05:37;;;;;;;0.10;0.10;;;;;;;;;;6155391;23;20038;-79
2023/12/25 03:08:04;;;;;;;0.10;0.10;;;;;;;;;;6156315;23;20089;-79
2023/12/25 03:10:30;;;;;;;0.10;0.10;;;;;;;;;;6157154;23;20030;-79
2023/12/25 03:12:57;;;;;;;0.15;0.15;;;;;;;;;;6156972;23;20058;-79
2023/12/25 03:15:24;;;;;;;0.10;0.10;;;;;;;;;;6156342;23;20026;-79
2023/12/25 03:17:50;;;;;;;0.10;0.10;;;;;;;;;;6156482;23;20030;-79
2023/12/25 03:20:17;;;;;;;0.10;0.10;;;;;;;;;;6156791;23;20044;-79
2023/12/25 03:22:44;;;;;;;0.10;0.10;;;;;;;;;;6156037;23;20025;-79
2023/12/25 03:25:11;;;;;;;0.10;0.10;;;;;;;;;;6156086;23;20065;-79
2023/12/25 03:27:37;;;;;;;0.10;0.10;;;;;;;;;;6156027;23;20029;-79
2023/12/25 03:30:04;;;;;;;0.10;0.10;;;;;;;;;;6156082;23;20089;-79
2023/12/25 03:32:31;;;;;;;0.10;0.10;;;;;;;;;;6157164;23;21215;-79
2023/12/25 03:34:57;;;;;;;0.10;0.10;;;;;;;;;;6153344;23;20391;-79
2023/12/25 03:37:24;;;;;;;0.10;0.10;;;;;;;;;;6155828;23;20052;-79
2023/12/25 03:39:51;;;;;;;0.10;0.10;;;;;;;;;;6155894;23;20027;-79
2023/12/25 03:42:18;;;;;;;0.10;0.10;;;;;;;;;;6155489;23;20025;-79
2023/12/25 03:44:45;;;;;;;0.13;0.13;;;;;;;;;;6157748;23;20030;-79
2023/12/25 03:47:12;;;;;;;0.17;0.17;;;;;;;;;;6157153;23;20069;-77
2023/12/25 03:49:38;;;;;;;0.10;0.10;;;;;;;;;;6154735;23;20057;-78
2023/12/25 03:52:05;;;;;;;0.10;0.10;;;;;;;;;;6154896;23;20040;-78
2023/12/25 03:54:31;;;;;;;0.38;0.38;;;;;;;;;;6156390;23;20025;-79
2023/12/25 03:56:57;;;;;;;0.10;0.10;;;;;;;;;;6155361;23;20483;-79
2023/12/25 03:59:24;;;;;;;0.10;0.10;;;;;;;;;;6157843;23;20028;-79
2023/12/25 04:01:51;;;;;;;0.10;0.10;;;;;;;;;;6157021;23;20054;-77
2023/12/25 04:04:17;;;;;;;0.10;0.10;;;;;;;;;;6156915;23;20116;-78
2023/12/25 04:06:43;;;;;;;0.00;0.00;;;;;;;;;;6156429;23;20045;-79
2023/12/25 04:09:10;;;;;;;0.10;0.10;;;;;;;;;;6156884;23;20030;-79
2023/12/25 04:11:36;;;;;;;0.10;0.10;;;;;;;;;;6130393;23;20030;-79
2023/12/25 04:14:03;;;;;;;0.10;0.10;;;;;;;;;;6157726;23;20996;-77
2023/12/25 04:16:29;;;;;;;0.20;0.20;;;;;;;;;;6158680;23;20068;-79
2023/12/25 04:18:56;;;;;;;0.10;0.10;;;;;;;;;;6155883;23;20088;-79
2023/12/25 04:21:26;;;;;;;0.10;0.10;;;;;;;;;;6158066;23;20037;-79
2023/12/25 04:23:53;;;;;;;0.20;0.20;;;;;;;;;;6157079;23;20120;-79
2023/12/25 04:26:20;;;;;;;0.10;0.10;;;;;;;;;;6155530;23;20113;-78
2023/12/25 04:28:47;;;;;;;0.10;0.10;;;;;;;;;;6157211;23;20117;-79
2023/12/25 04:31:14;;;;;;;0.10;0.10;;;;;;;;;;6157172;23;20049;-79
2023/12/25 04:33:40;;;;;;;0.10;0.10;;;;;;;;;;6156506;23;20034;-77
2023/12/25 04:36:07;;;;;;;0.10;0.10;;;;;;;;;;6157090;23;20105;-79
2023/12/25 04:38:35;;;;;;;0.40;0.40;;;;;;;;;;6157489;23;20026;-79
2023/12/25 04:41:01;;;;;;;0.10;0.10;;;;;;;;;;6157269;23;20130;-79
2023/12/25 04:43:28;;;;;;;0.10;0.10;;;;;;;;;;6156111;23;20061;-79
2023/12/25 04:45:54;;;;;;;0.10;0.10;;;;;;;;;;6130679;23;20026;-79
2023/12/25 04:48:21;;;;;;;0.10;0.10;;;;;;;;;;6156121;23;20058;-79
2023/12/25 04:50:47;;;;;;;0.10;0.10;;;;;;;;;;6130347;23;20069;-77
2023/12/25 04:53:14;;;;;;;0.10;0.10;;;;;;;;;;6156694;23;20025;-79
2023/12/25 04:55:41;;;;;;;0.10;0.10;;;;;;;;;;6156423;23;20469;-79
2023/12/25 04:58:07;;;;;;;0.10;0.10;;;;;;;;;;6157831;23;20548;-79
2023/12/25 05:00:34;;;;;;;0.40;0.40;;;;;;;;;;6156416;23;20026;-78
2023/12/25 05:03:00;;;;;;;0.10;0.10;;;;;;;;;;6156674;23;20069;-79
2023/12/25 05:05:27;;;;;;;0.10;0.10;;;;;;;;;;6156994;23;20029;-79
2023/12/25 05:07:53;;;;;;;0.20;0.20;;;;;;;;;;6156788;23;20050;-79
2023/12/25 05:10:20;;;;;;;0.10;0.10;;;;;;;;;;6156167;23;20030;-77
2023/12/25 05:12:47;;;;;;;0.10;0.10;;;;;;;;;;6157562;23;20053;-77
2023/12/25 05:15:14;;;;;;;0.10;0.10;;;;;;;;;;6162952;23;20032;-79
2023/12/25 05:17:40;;;;;;;0.03;0.03;;;;;;;;;;6169063;23;20108;-78
2023/12/25 05:20:07;;;;;;;0.10;0.10;;;;;;;;;;6166464;23;21137;-78
2023/12/25 05:22:33;;;;;;;0.20;0.20;;;;;;;;;;6165692;23;20120;-77
2023/12/25 05:25:00;;;;;;;0.10;0.10;;;;;;;;;;6165278;23;20042;-79
2023/12/25 05:27:26;;;;;;;0.10;0.10;;;;;;;;;;6164353;23;20026;-79
2023/12/25 05:29:53;;;;;;;0.10;0.10;;;;;;;;;;6164396;23;20041;-79
2023/12/25 05:32:20;;;;;;;0.10;0.10;;;;;;;;;;6163610;23;20085;-79
2023/12/25 05:34:46;;;;;;;0.35;0.25;;;;;;;;;;6162950;23;20022;-79
2023/12/25 05:37:13;;;;;;;0.10;0.10;;;;;;;;;;6161691;23;20041;-79
2023/12/25 05:39:39;;;;;;;0.20;0.20;;;;;;;;;;6162130;23;20029;-77
2023/12/25 05:42:05;;;;;;;0.10;0.10;;;;;;;;;;6163198;23;20058;-79
2023/12/25 05:44:32;;;;;;;0.10;0.10;;;;;;;;;;6163246;23;20037;-79
2023/12/25 05:46:58;;;;;;;0.10;0.10;;;;;;;;;;6163005;23;20112;-79
2023/12/25 05:49:25;;;;;;;0.10;0.10;;;;;;;;;;6162836;23;20093;-78
2023/12/25 05:51:51;;;;;;;0.10;0.10;;;;;;;;;;6162444;23;20081;-79
2023/12/25 05:54:18;;;;;;;0.10;0.10;;;;;;;;;;6162567;23;20065;-79
2023/12/25 05:56:44;;;;;;;0.10;0.10;;;;;;;;;;6161990;23;20030;-80
2023/12/25 05:59:11;;;;;;;0.10;0.10;;;;;;;;;;6162914;23;20113;-80
2023/12/25 06:01:37;;;;;;;0.10;0.10;;;;;;;;;;6162342;23;20384;-77
2023/12/25 06:04:04;;;;;;;0.10;0.10;;;;;;;;;;6162652;23;20462;-79
2023/12/25 06:06:30;;;;;;;0.10;0.10;;;;;;;;;;6161195;23;20478;-80
2023/12/25 06:08:57;;;;;;;0.10;0.10;;;;;;;;;;6161491;23;20069;-80
2023/12/25 06:11:23;;;;;;;0.10;0.10;;;;;;;;;;6162277;23;20574;-79
2023/12/25 06:13:50;;;;;;;0.10;0.10;;;;;;;;;;6161618;23;20072;-79
2023/12/25 06:16:16;;;;;;;0.10;0.10;;;;;;;;;;6134144;23;20041;-79
2023/12/25 06:18:43;;;;;;;0.10;0.10;;;;;;;;;;6157178;23;20026;-77
2023/12/25 06:21:09;;;;;;;0.10;0.10;;;;;;;;;;6156771;23;20475;-79
2023/12/25 06:23:36;;;;;;;0.10;0.10;;;;;;;;;;6157187;23;20030;-79
2023/12/25 06:26:02;;;;;;;0.13;0.13;;;;;;;;;;6157242;23;20129;-77
2023/12/25 06:28:29;;;;;;;0.10;0.10;;;;;;;;;;6157272;23;20038;-78
2023/12/25 06:30:55;;;;;;;0.10;0.10;;;;;;;;;;6158451;23;20026;-79
2023/12/25 06:33:22;;;;;;;0.38;0.38;;;;;;;;;;6157591;23;20101;-79
2023/12/25 06:35:49;;;;;;;0.20;0.20;;;;;;;;;;6157065;23;20030;-79
2023/12/25 06:38:15;;;;;;;0.10;0.10;;;;;;;;;;6157004;23;20593;-79
2023/12/25 06:40:42;;;;;;;0.10;0.10;;;;;;;;;;6156641;23;20054;-79
2023/12/25 06:43:08;;;;;;;0.10;0.10;;;;;;;;;;6157620;23;20071;-79
2023/12/25 06:45:35;;;;;;;0.10;0.10;;;;;;;;;;6158265;23;20026;-79
2023/12/25 06:48:01;;;;;;;0.10;0.10;;;;;;;;;;6157656;23;20065;-79
2023/12/25 06:50:28;;;;;;;0.10;0.10;;;;;;;;;;6157868;23;20116;-79
2023/12/25 06:52:55;;;;;;;0.10;0.10;;;;;;;;;;6156753;23;20045;-79
2023/12/25 06:55:21;;;;;;;0.10;0.10;;;;;;;;;;6156333;23;20041;-79
2023/12/25 06:57:47;;;;;;;0.10;0.10;;;;;;;;;;6156310;23;20030;-79
2023/12/25 07:00:14;;;;;;;0.10;0.10;;;;;;;;;;6155483;23;20498;-79
2023/12/25 07:02:41;;;;;;;0.10;0.10;;;;;;;;;;6158892;23;20034;-78
2023/12/25 07:05:08;;;;;;;0.10;0.10;;;;;;;;;;6159038;23;20104;-77
2023/12/25 07:07:35;;;;;;;0.00;0.00;;;;;;;;;;6182250;23;20140;-77
2023/12/25 07:10:02;;;;;;;0.10;0.10;;;;;;;;;;6181458;23;20378;-77
2023/12/25 07:12:29;;;;;;;0.03;0.03;;;;;;;;;;6182756;23;20030;-77
2023/12/25 07:14:55;;;;;;;0.10;0.10;;;;;;;;;;6182362;23;20036;-77
2023/12/25 07:17:22;;;;;;;0.20;0.20;;;;;;;;;;6183050;23;20080;-77
2023/12/25 07:19:49;;;;;;;0.10;0.10;;;;;;;;;;6183648;23;20169;-77
2023/12/25 07:22:16;;;;;;;0.10;0.10;;;;;;;;;;6183786;23;20033;-77
2023/12/25 07:24:42;;;;;;;0.10;0.10;;;;;;;;;;6183772;23;20461;-77
2023/12/25 07:27:09;;;;;;;0.10;0.10;;;;;;;;;;6183736;23;20021;-77
2023/12/25 07:29:35;;;;;;;0.10;0.10;;;;;;;;;;6183097;23;20115;-77
2023/12/25 07:32:02;;;;;;;0.10;0.10;;;;;;;;;;6182433;23;20036;-77
2023/12/25 07:34:28;;;;;;;0.10;0.10;;;;;;;;;;6181751;23;20197;-77
2023/12/25 07:36:55;;;;;;;0.10;0.10;;;;;;;;;;6183282;23;20413;-77
2023/12/25 07:39:21;;;;;;;0.10;0.10;;;;;;;;;;6183364;23;20029;-77
2023/12/25 07:41:48;;;;;;;0.10;0.10;;;;;;;;;;6158163;23;20092;-78
2023/12/25 07:44:17;;;;;;;0.10;0.10;;;;;;;;;;6157615;23;20112;-78
2023/12/25 07:46:44;;;;;;;0.10;0.10;;;;;;;;;;6157243;23;20022;-77
2023/12/25 07:49:11;;;;;;;0.10;0.10;;;;;;;;;;6183107;23;20065;-77
2023/12/25 07:51:38;;;;;;;0.10;0.10;;;;;;;;;;6181671;23;20026;-77
2023/12/25 07:54:04;;;;;;;0.08;0.08;;;;;;;;;;6181555;23;20038;-77
2023/12/25 07:56:31;;;;;;;0.10;0.10;;;;;;;;;;6155506;23;20489;-77
2023/12/25 07:58:57;;;;;;;0.10;0.10;;;;;;;;;;6180279;23;20026;-78
2023/12/25 08:01:24;;;;;;;0.08;0.08;;;;;;;;;;6180316;23;20112;-77
2023/12/25 08:03:50;;;;;;;0.10;0.10;;;;;;;;;;6180190;23;20508;-77
2023/12/25 08:06:17;;;;;;;0.10;0.10;;;;;;;;;;6181352;23;20030;-77
2023/12/25 08:08:44;;;;;;;0.10;0.10;;;;;;;;;;6179925;23;20398;-78
2023/12/25 08:11:15;;;;;;;0.00;0.00;;;;;;;;;;6181334;23;20102;-78
2023/12/25 08:13:41;;;;;;;0.00;0.00;;;;;;;;;;6181800;23;20509;-77
2023/12/25 08:16:08;;;;;;;0.08;0.08;;;;;;;;;;6181457;23;20026;-78
2023/12/25 08:18:34;;;;;;;0.10;0.10;;;;;;;;;;6155556;23;20025;-78
2023/12/25 08:21:01;;;;;;;0.10;0.10;;;;;;;;;;6180464;23;20026;-77
2023/12/25 08:23:28;;;;;;;0.10;0.10;;;;;;;;;;6181356;23;20030;-78
2023/12/25 08:25:54;;;;;;;0.03;0.03;;;;;;;;;;6181368;23;20036;-77
2023/12/25 08:28:20;;;;;;;0.10;0.10;;;;;;;;;;6181558;23;20064;-78
2023/12/25 08:30:47;;;;;;;0.10;0.10;;;;;;;;;;6180574;23;20061;-78
2023/12/25 08:33:13;;;;;;;0.10;0.10;;;;;;;;;;6182145;23;20108;-78
2023/12/25 08:35:39;;;;;;;0.10;0.10;;;;;;;;;;6181291;23;20025;-78
2023/12/25 08:38:06;;;;;;;0.10;0.10;;;;;;;;;;6181365;23;20419;-77
2023/12/25 08:40:33;;;;;;;0.10;0.10;;;;;;;;;;6155249;23;20029;-78
2023/12/25 08:43:00;;;;;;;0.10;0.10;;;;;;;;;;6181503;23;20515;-77
2023/12/25 08:45:26;;;;;;;0.10;0.10;;;;;;;;;;6155834;23;20076;-78
2023/12/25 08:47:53;;;;;;;0.10;0.10;;;;;;;;;;6181303;23;20108;-78
2023/12/25 08:50:20;;;;;;;0.10;0.10;;;;;;;;;;6181388;23;20030;-78
2023/12/25 08:52:46;;;;;;;0.10;0.10;;;;;;;;;;6181813;23;20026;-78
2023/12/25 08:55:13;;;;;;;0.10;0.10;;;;;;;;;;6182171;23;20029;-78
2023/12/25 08:57:39;;;;;;;0.10;0.10;;;;;;;;;;6181699;23;20059;-78
2023/12/25 09:00:06;;;;;;;0.10;0.10;;;;;;;;;;6181047;23;20394;-78
2023/12/25 09:02:33;;;;;;;0.00;0.00;;;;;;;;;;6181173;23;20030;-77
2023/12/25 09:05:00;;;;;;;0.10;0.10;;;;;;;;;;6155820;23;20030;-78
2023/12/25 09:07:30;;;;;;;0.10;0.10;;;;;;;;;;6181239;23;20030;-77
2023/12/25 09:09:58;;;;;;;0.10;0.10;;;;;;;;;;6181459;23;20029;-78
2023/12/25 09:12:24;;;;;;;0.10;0.10;;;;;;;;;;6180613;23;20052;-78
2023/12/25 09:14:52;;;;;;;0.00;0.00;;;;;;;;;;6181374;23;20133;-78
2023/12/25 09:17:19;;;;;;;0.10;0.10;;;;;;;;;;6181608;23;20025;-78
2023/12/25 09:19:47;;;;;;;1.33;1.23;;;;;;;;;;6181802;23;20109;-78
2023/12/25 09:22:13;;;;;;;0.10;0.10;;;;;;;;;;6180325;23;20110;-77
2023/12/25 09:24:46;;;;;;;0.20;0.20;;;;;;;;;;6181903;23;20033;-78
2023/12/25 09:27:12;;;;;;;0.10;0.10;;;;;;;;;;6181279;23;20108;-77
2023/12/25 09:29:39;;;;;;;0.10;0.10;;;;;;;;;;6155148;23;20458;-78
2023/12/25 09:32:06;;;;;;;0.10;0.10;;;;;;;;;;6182414;23;20036;-77
2023/12/25 09:34:32;;;;;;;0.10;0.10;;;;;;;;;;6181472;23;20029;-77
2023/12/25 09:37:19;;;;;;;0.10;0.10;;;;;;;;;;6158778;23;20109;-77
2023/12/25 09:39:46;;;;;;;0.10;0.10;;;;;;;;;;6182334;23;20497;-77
2023/12/25 09:42:12;;;;;;;0.10;0.10;;;;;;;;;;6181134;23;20025;-77
2023/12/25 09:44:39;;;;;;;0.10;0.10;;;;;;;;;;6180363;23;20498;-77
2023/12/25 09:47:06;;;;;;;0.10;0.10;;;;;;;;;;6181745;23;20060;-80
2023/12/25 09:49:38;;;;;;;0.10;0.10;;;;;;;;;;6153869;23;20362;-78
2023/12/25 09:52:05;;;;;;;0.10;0.10;;;;;;;;;;6179344;23;20079;-78
2023/12/25 09:54:31;;;;;;;0.30;0.30;;;;;;;;;;6154013;23;20136;-78
2023/12/25 09:56:58;;;;;;;0.10;0.10;;;;;;;;;;6155528;23;20088;-78
2023/12/25 09:59:27;;;;;;;0.10;0.10;;;;;;;;;;6181621;23;20027;-78
2023/12/25 10:01:55;;;;;;;0.10;0.10;;;;;;;;;;6180992;23;20430;-78
2023/12/25 10:04:22;;;;;;;0.10;0.10;;;;;;;;;;6155931;23;20025;-78
2023/12/25 10:06:49;;;;;;;0.10;0.10;;;;;;;;;;6181262;23;20041;-78
2023/12/25 10:09:16;;;;;;;0.10;0.10;;;;;;;;;;6182047;23;20031;-78
2023/12/25 10:11:42;;;;;;;0.10;0.10;;;;;;;;;;6157512;23;20077;-78
2023/12/25 10:14:09;;;;;;;0.10;0.10;;;;;;;;;;6152555;23;20029;-78
2023/12/25 10:16:35;;;;;;;0.10;0.10;;;;;;;;;;6180187;23;20026;-78
2023/12/25 10:19:02;;;;;;;0.20;0.20;;;;;;;;;;6179545;23;20104;-77
2023/12/25 10:21:40;;;;;;;0.10;0.10;;;;;;;;;;6180706;23;20610;-77
2023/12/25 10:24:11;;;;;;;0.10;0.10;;;;;;;;;;6180678;23;20110;-77
2023/12/25 10:26:37;;;;;;;0.10;0.10;;;;;;;;;;6180695;23;20040;-77
2023/12/25 10:29:10;;;;;;;0.10;0.10;;;;;;;;;;6180886;23;20077;-78
2023/12/25 10:31:37;;;;;;;0.10;0.10;;;;;;;;;;6180074;23;20079;-78
2023/12/25 10:34:04;;;;;;;0.10;0.10;;;;;;;;;;6181149;23;20029;-78
2023/12/25 10:36:31;;;;;;;0.20;0.20;;;;;;;;;;6182404;23;20030;-78
2023/12/25 10:38:59;;;;;;;0.10;0.10;;;;;;;;;;6181663;23;20100;-78
2023/12/25 10:41:33;;;;;;;0.10;0.10;;;;;;;;;;6181436;23;20049;-78
2023/12/25 10:44:00;;;;;;;0.10;0.10;;;;;;;;;;6181573;23;20025;-78
2023/12/25 10:46:34;;;;;;;0.10;0.10;;;;;;;;;;6181478;23;20918;-77
2023/12/25 10:49:01;;;;;;;0.10;0.10;;;;;;;;;;6180041;23;20037;-77
2023/12/25 10:51:28;;;;;;;0.10;0.10;;;;;;;;;;6181073;23;20055;-77
2023/12/25 10:54:03;;;;;;;0.10;0.10;;;;;;;;;;6160529;23;20025;-77
2023/12/25 10:56:35;;;;;;;0.10;0.10;;;;;;;;;;6158369;23;20022;-77
2023/12/25 10:59:06;;;;;;;0.10;0.10;;;;;;;;;;6158648;23;20092;-77
2023/12/25 11:02:03;;;;;;;0.10;0.10;;;;;;;;;;6183533;23;20013;-77
2023/12/25 11:04:32;;;;;;;0.10;0.10;;;;;;;;;;6156917;23;20072;-77
2023/12/25 11:06:59;;;;;;;0.35;0.30;;;;;;;;;;6156652;23;20026;-77
2023/12/25 11:09:25;;;;;;;0.10;0.10;;;;;;;;;;6132015;23;20025;-76
2023/12/25 11:11:52;;;;;;;0.10;0.10;;;;;;;;;;6181863;23;20030;-76
2023/12/25 11:14:19;;;;;;;0.10;0.10;;;;;;;;;;6181672;23;20549;-76
2023/12/25 11:16:46;;;;;;;0.13;0.13;;;;;;;;;;6155975;23;20036;-76
2023/12/25 11:19:12;;;;;;;0.43;0.43;;;;;;;;;;6183422;23;20761;-76
2023/12/25 11:21:39;;;;;;;0.13;0.13;;;;;;;;;;6182548;23;20039;-76
2023/12/25 11:24:07;;;;;;;0.10;0.10;;;;;;;;;;6183442;23;20073;-76
2023/12/25 11:26:33;;;;;;;0.10;0.10;;;;;;;;;;6157299;23;20052;-76
2023/12/25 11:29:01;;;;;;;0.10;0.10;;;;;;;;;;6183586;23;21056;-76
2023/12/25 11:31:28;;;;;;;0.10;0.10;;;;;;;;;;6183211;23;20062;-76
2023/12/25 11:34:16;;;;;;;1.13;0.40;;;;;;;;;;6181980;23;20085;-77
2023/12/25 11:36:43;;;;;;;0.10;0.10;;;;;;;;;;6156418;23;20847;-76
2023/12/25 11:39:10;;;;;;;0.43;0.43;;;;;;;;;;6183567;23;20108;-77
2023/12/25 11:41:37;;;;;;;0.10;0.10;;;;;;;;;;6182479;23;20105;-76
2023/12/25 11:44:08;;;;;;;0.10;0.10;;;;;;;;;;6182816;23;20057;-76
2023/12/25 11:46:34;;;;;;;;;;;;;;;;;;6183220;23;20034;-76
2023/12/25 11:49:01;;;;;;;0.10;0.10;;;;;;;;;;6156271;23;47334;-76
2023/12/25 11:51:31;;;;;;;0.10;0.10;;;;;;;;;;6182388;23;20137;-76
2023/12/25 11:53:58;;;;;;;0.10;0.10;;;;;;;;;;6183073;23;20040;-76
2023/12/25 11:56:29;;;;;;;0.10;0.10;;;;;;;;;;6183875;23;20477;-76
2023/12/25 11:58:55;;;;;;;0.10;0.10;;;;;;;;;;6156730;23;20531;-76
2023/12/25 12:01:22;;;;;;;0.10;0.10;;;;;;;;;;6155129;23;20029;-76
2023/12/25 12:03:49;;;;;;;0.10;0.10;;;;;;;;;;6182035;23;20037;-76
2023/12/25 12:06:16;;;;;;;0.10;0.10;;;;;;;;;;6156669;23;20144;-76
2023/12/25 12:08:43;;;;;;;0.05;0.05;;;;;;;;;;6182615;23;20036;-77
2023/12/25 12:11:10;;;;;;;0.10;0.10;;;;;;;;;;6181423;23;20089;-77
2023/12/25 12:13:36;;;;;;;0.45;0.45;;;;;;;;;;6181402;23;20096;-76
2023/12/25 12:16:03;;;;;;;0.10;0.10;;;;;;;;;;6181727;23;20978;-76
2023/12/25 12:18:30;;;;;;;0.10;0.10;;;;;;;;;;6182091;23;20029;-77
2023/12/25 12:20:57;;;;;;;0.10;0.10;;;;;;;;;;6182811;23;20041;-76
2023/12/25 12:23:26;;;;;;;0.10;0.10;;;;;;;;;;6181351;23;20053;-77
2023/12/25 12:25:52;;;;;;;0.10;0.10;;;;;;;;;;6182640;23;20029;-76
2023/12/25 12:28:19;;;;;;;0.15;0.15;;;;;;;;;;6181342;23;20557;-76
2023/12/25 12:30:45;;;;;;;0.10;0.10;;;;;;;;;;6180885;23;20553;-76
2023/12/25 12:33:18;;;;;;;0.10;0.10;;;;;;;;;;6182149;23;20036;-77
2023/12/25 12:35:50;;;;;;;0.10;0.10;;;;;;;;;;6158521;23;20031;-77
2023/12/25 12:38:17;;;;;;;0.10;0.10;;;;;;;;;;6212749;23;20525;-76
2023/12/25 12:40:43;;;;;;;0.10;0.10;;;;;;;;;;6212693;23;20025;-76
2023/12/25 12:43:11;;;;;;;0.10;0.10;;;;;;;;;;6212443;23;20052;-76
2023/12/25 12:45:38;;;;;;;0.10;0.10;;;;;;;;;;6210896;23;20576;-76
2023/12/25 12:48:05;;;;;;;0.10;0.10;;;;;;;;;;6212966;22;20029;-76
2023/12/25 12:50:32;;;;;;;0.10;0.10;;;;;;;;;;6210125;23;20028;-76
2023/12/25 12:52:59;;;;;;;0.10;0.10;;;;;;;;;;6211543;23;20029;-76
2023/12/25 12:55:26;;;;;;;0.10;0.10;;;;;;;;;;6211400;23;20033;-76
2023/12/25 12:57:52;;;;;;;0.10;0.10;;;;;;;;;;6185728;23;20025;-76
2023/12/25 13:00:19;;;;;;;0.10;0.10;;;;;;;;;;6185304;23;20622;-76
2023/12/25 13:02:46;;;;;;;0.10;0.10;;;;;;;;;;6211619;23;20036;-77
2023/12/25 13:05:13;;;;;;;0.10;0.10;;;;;;;;;;6218949;22;20052;-80
2023/12/25 13:07:39;;;;;;;0.10;0.10;;;;;;;;;;6245996;22;20111;-82
2023/12/25 13:10:06;;;;;;;0.10;0.10;;;;;;;;;;6246051;22;20487;-84
2023/12/25 13:12:32;;;;;;;0.10;0.10;;;;;;;;;;6219326;22;20025;-82
2023/12/25 13:14:58;;;;;;;0.10;0.10;;;;;;;;;;6245373;22;20033;-82
2023/12/25 13:17:25;;;;;;;0.10;0.10;;;;;;;;;;6246452;22;20021;-84
2023/12/25 13:19:54;;;;;;;0.10;0.10;;;;;;;;;;6244904;22;20025;-81
2023/12/25 13:22:20;;;;;;;0.10;0.10;;;;;;;;;;6245118;22;20475;-82
2023/12/25 13:24:47;;;;;;;0.20;0.20;;;;;;;;;;6245073;22;20024;-81
2023/12/25 13:27:13;;;;;;;0.10;0.10;;;;;;;;;;6243881;22;20039;-81
2023/12/25 13:29:40;;;;;;;0.10;0.10;;;;;;;;;;6242233;22;20028;-82
2023/12/25 13:32:06;;;;;;;0.10;0.10;;;;;;;;;;6215689;22;20021;-80
2023/12/25 13:34:33;;;;;;;0.10;0.10;;;;;;;;;;6243664;22;20087;-80
2023/12/25 13:36:59;;;;;;;0.10;0.10;;;;;;;;;;6243127;22;20028;-82
2023/12/25 13:39:26;;;;;;;0.10;0.10;;;;;;;;;;6244341;22;20032;-81
2023/12/25 13:41:53;;;;;;;0.10;0.10;;;;;;;;;;6243896;22;20048;-81
2023/12/25 13:44:20;;;;;;;0.10;0.10;;;;;;;;;;6243489;22;20028;-80
2023/12/25 13:46:46;;;;;;;0.50;0.50;;;;;;;;;;6243532;22;20028;-80
2023/12/25 13:49:13;;;;;;;0.10;0.10;;;;;;;;;;6243650;22;20075;-80
2023/12/25 13:51:40;;;;;;;0.10;0.10;;;;;;;;;;6217113;22;20032;-81
2023/12/25 13:54:08;;;;;;;0.10;0.10;;;;;;;;;;6242808;22;20009;-84
2023/12/25 13:56:35;;;;;;;0.32;0.30;;;;;;;;;;6244974;22;20016;-83
2023/12/25 13:59:02;;;;;;;0.10;0.10;;;;;;;;;;6243755;22;20009;-82
2023/12/25 14:01:29;;;;;;;0.10;0.10;;;;;;;;;;6243898;22;20054;-87
2023/12/25 14:03:55;;;;;;;0.65;0.65;;;;;;;;;;6215377;22;20024;-81
2023/12/25 14:06:22;;;;;;;0.20;0.20;;;;;;;;;;6243890;22;20005;-82
2023/12/25 14:08:49;;;;;;;0.10;0.10;;;;;;;;;;6241405;22;20028;-83
2023/12/25 14:11:16;;;;;;;0.10;0.10;;;;;;;;;;6243162;22;20552;-83
2023/12/25 14:13:42;;;;;;;0.10;0.10;;;;;;;;;;6242688;22;20017;-82
2023/12/25 14:16:10;;;;;;;0.10;0.10;;;;;;;;;;6241888;22;20028;-82
2023/12/25 14:18:37;;;;;;;0.10;0.10;;;;;;;;;;6243198;22;20028;-83
2023/12/25 14:21:04;;;;;;;0.10;0.10;;;;;;;;;;6242845;22;20029;-85
2023/12/25 14:23:31;;;;;;;0.10;0.10;;;;;;;;;;6242612;22;20029;-83
2023/12/25 14:25:57;;;;;;;0.10;0.10;;;;;;;;;;6216083;22;20099;-82
2023/12/25 14:28:23;;;;;;;0.17;0.17;;;;;;;;;;6215743;22;20025;-83
2023/12/25 14:30:50;;;;;;;0.10;0.10;;;;;;;;;;6243511;22;20029;-84
2023/12/25 14:33:17;;;;;;;0.10;0.10;;;;;;;;;;6243197;22;20032;-82
2023/12/25 14:35:44;;;;;;;0.10;0.10;;;;;;;;;;6241962;22;20016;-83
2023/12/25 14:38:10;;;;;;;0.10;0.10;;;;;;;;;;6242921;22;20029;-87
2023/12/25 14:40:37;;;;;;;0.10;0.10;;;;;;;;;;6243353;22;20035;-84
2023/12/25 14:43:03;;;;;;;0.10;0.10;;;;;;;;;;6243608;22;20024;-82